Time;durP1;ratioP1;P1;durP2;ratioP2;P2;SDS_P1;SDS_P2;PMS_P1;PMS_P2;Temp;Humidity;BMP_temperature;BMP_pressure;BME280_temperature;BME280_humidity;BME280_pressure;Samples;Min_cycle;Max_cycle;Signal;HPM_P1;HPM_P2
2021/06/21 00:01:23;;;;;;;17.77;8.20;;;;;;;;;;5036169;28;20028;-69
2021/06/21 00:03:49;;;;;;;15.60;8.00;;;;;;;;;;5036107;28;20028;-69
2021/06/21 00:06:14;;;;;;;21.50;8.65;;;;;;;;;;5035916;28;20018;-69
2021/06/21 00:08:40;;;;;;;24.35;8.85;;;;;;;;;;5035989;28;20021;-69
2021/06/21 00:11:05;;;;;;;23.98;9.60;;;;;;;;;;5035754;28;20097;-69
2021/06/21 00:13:31;;;;;;;25.02;10.45;;;;;;;;;;5035989;28;20018;-69
2021/06/21 00:15:56;;;;;;;16.40;9.68;;;;;;;;;;5035974;28;20017;-70
2021/06/21 00:18:23;;;;;;;21.08;9.77;;;;;;;;;;5035851;28;20025;-70
2021/06/21 00:20:49;;;;;;;18.25;10.05;;;;;;;;;;5035781;28;20013;-69
2021/06/21 00:23:15;;;;;;;20.45;10.70;;;;;;;;;;5035308;28;20373;-69
2021/06/21 00:25:40;;;;;;;19.88;9.77;;;;;;;;;;5035818;28;20018;-69
2021/06/21 00:28:06;;;;;;;15.63;8.48;;;;;;;;;;5035611;28;20025;-69
2021/06/21 00:30:31;;;;;;;23.67;9.68;;;;;;;;;;5035762;28;20374;-69
2021/06/21 00:32:57;;;;;;;15.07;8.50;;;;;;;;;;5035315;28;20030;-69
2021/06/21 00:35:22;;;;;;;18.00;8.80;;;;;;;;;;5035494;28;20020;-70
2021/06/21 00:37:48;;;;;;;20.83;9.70;;;;;;;;;;5035522;28;20531;-70
2021/06/21 00:40:14;;;;;;;15.93;8.77;;;;;;;;;;5033617;28;20010;-70
2021/06/21 00:42:42;;;;;;;15.77;8.30;;;;;;;;;;5035536;28;20108;-69
2021/06/21 00:45:08;;;;;;;15.57;9.20;;;;;;;;;;5035167;28;20029;-70
2021/06/21 00:47:34;;;;;;;23.20;8.30;;;;;;;;;;5035417;28;20017;-70
2021/06/21 00:49:59;;;;;;;13.88;8.38;;;;;;;;;;5035235;28;20100;-70
2021/06/21 00:52:25;;;;;;;18.17;8.98;;;;;;;;;;5017198;28;20022;-69
2021/06/21 00:54:59;;;;;;;16.25;8.80;;;;;;;;;;5035151;28;20096;-70
2021/06/21 00:57:26;;;;;;;15.85;8.85;;;;;;;;;;5035467;28;20021;-70
2021/06/21 00:59:52;;;;;;;12.73;8.10;;;;;;;;;;5035000;28;20136;-69
2021/06/21 01:02:21;;;;;;;20.42;9.52;;;;;;;;;;5017237;28;20033;-69
2021/06/21 01:04:46;;;;;;;15.80;8.40;;;;;;;;;;5035111;28;20017;-70
2021/06/21 01:07:12;;;;;;;21.52;9.65;;;;;;;;;;5034565;28;20504;-69
2021/06/21 01:09:37;;;;;;;18.80;8.20;;;;;;;;;;5033607;28;20032;-69
2021/06/21 01:12:07;;;;;;;11.00;7.72;;;;;;;;;;5033479;28;20021;-70
2021/06/21 01:14:40;;;;;;;16.00;7.85;;;;;;;;;;5033630;28;20029;-70
2021/06/21 01:17:10;;;;;;;15.45;7.93;;;;;;;;;;5034491;28;20024;-70
2021/06/21 01:19:54;;;;;;;20.88;8.70;;;;;;;;;;5034629;28;20013;-68
2021/06/21 01:22:38;;;;;;;17.15;9.80;;;;;;;;;;5033217;28;20047;-70
2021/06/21 01:25:07;;;;;;;14.43;8.25;;;;;;;;;;5034383;28;20044;-69
2021/06/21 01:27:52;;;;;;;18.70;8.70;;;;;;;;;;5034734;28;20017;-70
2021/06/21 01:30:19;;;;;;;19.48;8.65;;;;;;;;;;5034369;28;20021;-70
2021/06/21 01:32:59;;;;;;;17.10;9.23;;;;;;;;;;5034354;28;20021;-69
2021/06/21 01:35:30;;;;;;;16.17;8.25;;;;;;;;;;5016831;28;20017;-70
2021/06/21 01:37:58;;;;;;;17.00;8.60;;;;;;;;;;5034348;28;20017;-70
2021/06/21 01:40:24;;;;;;;15.00;8.23;;;;;;;;;;5034279;28;20044;-70
2021/06/21 01:42:53;;;;;;;11.75;7.78;;;;;;;;;;5034197;28;20075;-69
2021/06/21 01:45:19;;;;;;;13.75;7.97;;;;;;;;;;5034058;28;20442;-69
2021/06/21 01:47:48;;;;;;;18.75;7.88;;;;;;;;;;5034200;28;20053;-70
2021/06/21 01:50:21;;;;;;;17.80;7.97;;;;;;;;;;5034053;28;20432;-70
2021/06/21 01:52:50;;;;;;;20.25;8.80;;;;;;;;;;5031782;28;20021;-70
2021/06/21 01:55:19;;;;;;;13.98;8.25;;;;;;;;;;5033643;28;20020;-69
2021/06/21 01:57:45;;;;;;;11.30;7.50;;;;;;;;;;5034086;28;20016;-69
2021/06/21 02:00:11;;;;;;;10.75;7.28;;;;;;;;;;5032506;28;20490;-69
2021/06/21 02:02:37;;;;;;;14.15;8.05;;;;;;;;;;5016120;28;20390;-69
2021/06/21 02:05:04;;;;;;;12.80;7.65;;;;;;;;;;5033584;28;20017;-69
2021/06/21 02:07:32;;;;;;;17.65;8.15;;;;;;;;;;5033830;28;20504;-69
2021/06/21 02:09:58;;;;;;;24.75;8.48;;;;;;;;;;5032280;28;20478;-70
2021/06/21 02:12:24;;;;;;;16.98;7.93;;;;;;;;;;5033636;28;20021;-70
2021/06/21 02:14:50;;;;;;;11.52;7.40;;;;;;;;;;5032407;28;20014;-70
2021/06/21 02:17:21;;;;;;;13.57;7.80;;;;;;;;;;5033260;28;20502;-70
2021/06/21 02:19:47;;;;;;;18.98;7.88;;;;;;;;;;5033675;28;20040;-70
2021/06/21 02:22:12;;;;;;;13.07;8.05;;;;;;;;;;5032074;28;20509;-69
2021/06/21 02:24:38;;;;;;;18.88;8.07;;;;;;;;;;5033323;28;20018;-69
2021/06/21 02:27:05;;;;;;;14.48;8.00;;;;;;;;;;5033175;28;20057;-69
2021/06/21 02:29:31;;;;;;;11.20;7.47;;;;;;;;;;5033476;28;20025;-70
2021/06/21 02:31:57;;;;;;;13.23;8.38;;;;;;;;;;5033173;28;20105;-70
2021/06/21 02:34:22;;;;;;;13.23;7.35;;;;;;;;;;5033301;28;20028;-69
2021/06/21 02:36:48;;;;;;;13.20;8.10;;;;;;;;;;5033372;28;20368;-69
2021/06/21 02:39:15;;;;;;;11.57;7.65;;;;;;;;;;5032877;28;20013;-69
2021/06/21 02:41:40;;;;;;;15.57;8.23;;;;;;;;;;5033363;28;20009;-69
2021/06/21 02:44:06;;;;;;;14.50;7.88;;;;;;;;;;5032002;28;20355;-70
2021/06/21 02:46:32;;;;;;;9.52;6.82;;;;;;;;;;5033167;28;20017;-70
2021/06/21 02:48:57;;;;;;;13.40;7.95;;;;;;;;;;5032870;28;20083;-70
2021/06/21 02:51:43;;;;;;;14.05;7.88;;;;;;;;;;5033159;28;20494;-69
2021/06/21 02:54:11;;;;;;;15.48;7.70;;;;;;;;;;5032858;28;20029;-69
2021/06/21 02:56:55;;;;;;;14.93;7.90;;;;;;;;;;5033083;28;20524;-69
2021/06/21 02:59:22;;;;;;;14.25;8.15;;;;;;;;;;5032706;28;20018;-69
2021/06/21 03:01:50;;;;;;;16.40;8.82;;;;;;;;;;5033065;28;20020;-69
2021/06/21 03:04:16;;;;;;;13.27;9.23;;;;;;;;;;5032504;28;20064;-68
2021/06/21 03:06:43;;;;;;;13.45;7.70;;;;;;;;;;5032894;28;20083;-69
2021/06/21 03:09:09;;;;;;;10.80;7.57;;;;;;;;;;5032395;28;20020;-69
2021/06/21 03:11:35;;;;;;;14.23;7.53;;;;;;;;;;5032923;28;20502;-69
2021/06/21 03:14:01;;;;;;;11.30;7.30;;;;;;;;;;5032776;28;20025;-70
2021/06/21 03:16:27;;;;;;;9.68;7.30;;;;;;;;;;5015088;28;20430;-69
2021/06/21 03:18:54;;;;;;;19.23;7.45;;;;;;;;;;5032634;28;20101;-69
2021/06/21 03:21:20;;;;;;;11.88;7.57;;;;;;;;;;5030940;28;20391;-69
2021/06/21 03:23:49;;;;;;;17.67;7.40;;;;;;;;;;5032807;28;20018;-70
2021/06/21 03:26:14;;;;;;;;;;;;;;;;;;5033016;28;20014;-70
2021/06/21 03:28:40;;;;;;;11.77;7.40;;;;;;;;;;5032784;28;19928;-69
2021/06/21 03:31:07;;;;;;;13.20;7.57;;;;;;;;;;5032327;28;20501;-69
2021/06/21 03:33:33;;;;;;;16.45;8.68;;;;;;;;;;5014659;28;20018;-69
2021/06/21 03:35:58;;;;;;;17.00;7.07;;;;;;;;;;5032560;28;20021;-70
2021/06/21 03:38:25;;;;;;;13.82;8.20;;;;;;;;;;5032559;28;20029;-69
2021/06/21 03:40:52;;;;;;;12.02;8.02;;;;;;;;;;5032531;28;20056;-70
2021/06/21 03:43:18;;;;;;;9.00;6.88;;;;;;;;;;5032303;28;20481;-69
2021/06/21 03:45:44;;;;;;;12.55;7.43;;;;;;;;;;5032548;28;20032;-69
2021/06/21 03:48:10;;;;;;;11.48;7.07;;;;;;;;;;5014545;28;20105;-69
2021/06/21 03:50:36;;;;;;;11.57;6.88;;;;;;;;;;5032424;28;20021;-69
2021/06/21 03:53:01;;;;;;;15.20;6.97;;;;;;;;;;5032023;28;20024;-69
2021/06/21 03:55:26;;;;;;;14.25;7.05;;;;;;;;;;5014747;28;20425;-69
2021/06/21 03:57:54;;;;;;;11.48;6.82;;;;;;;;;;5031124;28;20381;-69
2021/06/21 04:00:22;;;;;;;11.73;5.65;;;;;;;;;;5015121;28;20021;-69
2021/06/21 04:02:48;;;;;;;11.93;6.20;;;;;;;;;;5032221;28;20018;-69
2021/06/21 04:05:13;;;;;;;10.43;5.45;;;;;;;;;;5032330;28;20113;-70
2021/06/21 04:07:39;;;;;;;10.25;7.10;;;;;;;;;;5014917;28;20021;-71
2021/06/21 04:10:09;;;;;;;14.77;5.82;;;;;;;;;;5032064;28;20021;-69
2021/06/21 04:12:36;;;;;;;11.52;5.90;;;;;;;;;;5032305;28;20386;-69
2021/06/21 04:15:03;;;;;;;9.70;6.38;;;;;;;;;;5031956;28;20398;-70
2021/06/21 04:17:28;;;;;;;15.50;5.28;;;;;;;;;;5035579;28;20053;-69
2021/06/21 04:19:54;;;;;;;7.35;4.95;;;;;;;;;;5035904;28;20470;-70
2021/06/21 04:22:19;;;;;;;8.95;4.20;;;;;;;;;;5035584;28;20387;-71
2021/06/21 04:24:45;;;;;;;17.85;5.38;;;;;;;;;;5035647;28;20029;-70
2021/06/21 04:27:12;;;;;;;20.65;6.20;;;;;;;;;;5035394;28;20021;-70
2021/06/21 04:29:37;;;;;;;14.65;4.85;;;;;;;;;;5035718;28;20041;-70
2021/06/21 04:32:03;;;;;;;9.25;4.90;;;;;;;;;;5035386;28;20064;-69
2021/06/21 04:34:29;;;;;;;12.98;4.13;;;;;;;;;;5035565;28;20067;-70
2021/06/21 04:36:54;;;;;;;10.05;4.00;;;;;;;;;;5035383;28;20017;-70
2021/06/21 04:39:20;;;;;;;8.88;4.30;;;;;;;;;;5035221;28;20433;-71
2021/06/21 04:41:45;;;;;;;5.82;3.75;;;;;;;;;;5035514;28;20061;-71
2021/06/21 04:44:11;;;;;;;7.38;5.00;;;;;;;;;;5035345;28;20486;-70
2021/06/21 04:46:37;;;;;;;13.27;6.03;;;;;;;;;;5035370;28;20021;-70
2021/06/21 04:49:05;;;;;;;9.40;4.63;;;;;;;;;;5034945;28;20022;-71
2021/06/21 04:51:32;;;;;;;11.77;5.03;;;;;;;;;;5035316;28;20416;-70
2021/06/21 04:53:58;;;;;;;13.00;4.70;;;;;;;;;;5033821;28;20075;-71
2021/06/21 04:56:23;;;;;;;9.88;3.92;;;;;;;;;;5035143;28;20377;-70
2021/06/21 04:58:48;;;;;;;16.08;5.05;;;;;;;;;;5035200;28;20018;-70
2021/06/21 05:01:14;;;;;;;15.30;4.00;;;;;;;;;;5033441;28;20017;-69
2021/06/21 05:03:39;;;;;;;12.23;4.10;;;;;;;;;;5035048;28;20555;-70
2021/06/21 05:06:05;;;;;;;12.52;4.20;;;;;;;;;;5034901;28;20096;-70
2021/06/21 05:08:31;;;;;;;11.27;5.15;;;;;;;;;;5034989;28;20482;-71
2021/06/21 05:10:56;;;;;;;12.15;5.32;;;;;;;;;;5016796;28;20072;-71
2021/06/21 05:13:21;;;;;;;17.48;5.00;;;;;;;;;;5034734;28;20457;-71
2021/06/21 05:15:47;;;;;;;15.68;4.45;;;;;;;;;;5034896;28;20014;-71
2021/06/21 05:18:13;;;;;;;12.10;3.92;;;;;;;;;;5034622;28;20470;-71
2021/06/21 05:20:41;;;;;;;14.07;4.88;;;;;;;;;;5033496;28;20028;-71
2021/06/21 05:23:07;;;;;;;14.93;4.90;;;;;;;;;;5034428;28;20038;-71
2021/06/21 05:25:33;;;;;;;7.97;3.97;;;;;;;;;;5033875;28;20200;-71
2021/06/21 05:28:00;;;;;;;6.93;3.67;;;;;;;;;;5033346;28;20014;-71
2021/06/21 05:30:25;;;;;;;6.28;3.45;;;;;;;;;;5034438;28;20024;-70
2021/06/21 05:32:51;;;;;;;7.63;3.22;;;;;;;;;;5034287;28;20136;-71
2021/06/21 05:35:17;;;;;;;11.48;3.60;;;;;;;;;;5034167;28;20021;-71
2021/06/21 05:37:42;;;;;;;8.40;3.97;;;;;;;;;;5034523;28;20021;-71
2021/06/21 05:40:08;;;;;;;8.93;4.10;;;;;;;;;;5034073;28;20018;-70
2021/06/21 05:42:33;;;;;;;9.48;3.80;;;;;;;;;;5034145;28;20028;-71
2021/06/21 05:44:59;;;;;;;10.95;3.95;;;;;;;;;;5034032;28;20024;-71
2021/06/21 05:47:24;;;;;;;11.80;3.65;;;;;;;;;;5033935;28;20127;-73
2021/06/21 05:49:50;;;;;;;16.23;3.80;;;;;;;;;;5034179;28;20033;-72
2021/06/21 05:52:15;;;;;;;7.97;4.13;;;;;;;;;;5033890;28;20022;-71
2021/06/21 05:54:40;;;;;;;6.63;3.40;;;;;;;;;;5034206;28;20049;-71
2021/06/21 05:57:06;;;;;;;13.73;3.97;;;;;;;;;;5033677;28;20014;-70
2021/06/21 05:59:32;;;;;;;6.78;3.67;;;;;;;;;;5034060;28;20013;-71
2021/06/21 06:01:57;;;;;;;7.35;3.85;;;;;;;;;;5033692;28;20021;-69
2021/06/21 06:04:23;;;;;;;18.58;3.47;;;;;;;;;;5049550;28;20017;-70
2021/06/21 06:06:48;;;;;;;7.30;3.10;;;;;;;;;;5053207;28;20022;-72
2021/06/21 06:09:15;;;;;;;7.95;3.20;;;;;;;;;;5049842;28;20028;-72
2021/06/21 06:11:43;;;;;;;12.35;2.92;;;;;;;;;;5052666;28;20023;-73
2021/06/21 06:14:08;;;;;;;11.73;3.60;;;;;;;;;;5047800;28;20020;-73
2021/06/21 06:16:34;;;;;;;5.88;3.05;;;;;;;;;;5027779;28;20027;-74
2021/06/21 06:18:59;;;;;;;6.70;3.17;;;;;;;;;;5046673;28;20021;-69
2021/06/21 06:21:29;;;;;;;15.20;3.35;;;;;;;;;;5044515;28;20049;-72
2021/06/21 06:23:54;;;;;;;19.05;4.05;;;;;;;;;;5045029;28;20025;-73
2021/06/21 06:26:20;;;;;;;12.50;3.10;;;;;;;;;;5037459;28;20489;-68
2021/06/21 06:28:45;;;;;;;9.25;3.22;;;;;;;;;;5041929;28;20478;-69
2021/06/21 06:31:11;;;;;;;6.47;2.75;;;;;;;;;;5046726;28;20032;-70
2021/06/21 06:33:37;;;;;;;5.78;3.20;;;;;;;;;;5027394;28;20029;-66
2021/06/21 06:36:06;;;;;;;8.20;2.67;;;;;;;;;;5032767;28;20374;-67
2021/06/21 06:38:33;;;;;;;6.75;3.13;;;;;;;;;;5032959;28;20087;-70
2021/06/21 06:40:58;;;;;;;7.50;2.80;;;;;;;;;;5040829;28;20017;-63
2021/06/21 06:43:25;;;;;;;6.82;2.72;;;;;;;;;;5043626;28;20021;-65
2021/06/21 06:45:50;;;;;;;5.63;2.83;;;;;;;;;;5042470;28;20033;-64
2021/06/21 06:48:15;;;;;;;8.95;2.63;;;;;;;;;;5032311;28;20630;-67
2021/06/21 06:50:41;;;;;;;6.18;3.13;;;;;;;;;;5051006;28;20028;-69
2021/06/21 06:53:06;;;;;;;8.18;2.72;;;;;;;;;;5039174;28;20504;-68
2021/06/21 06:58:16;;;;;;;6.68;3.00;;;;;;;;;;5038292;28;20024;-66
2021/06/21 07:00:41;;;;;;;26.65;3.53;;;;;;;;;;5041713;28;20112;-63
2021/06/21 07:03:07;;;;;;;21.90;3.30;;;;;;;;;;5041304;28;20060;-69
2021/06/21 07:05:32;;;;;;;7.25;2.42;;;;;;;;;;5040609;28;20021;-64
2021/06/21 07:07:58;;;;;;;5.20;2.30;;;;;;;;;;5052194;28;20028;-64
2021/06/21 07:10:24;;;;;;;5.75;2.70;;;;;;;;;;5046577;28;20032;-73
2021/06/21 07:12:49;;;;;;;4.78;2.70;;;;;;;;;;5050711;28;20393;-64
2021/06/21 07:15:14;;;;;;;7.75;2.65;;;;;;;;;;5046962;28;20017;-64
2021/06/21 07:17:40;;;;;;;9.00;3.45;;;;;;;;;;5043243;28;20600;-65
2021/06/21 07:20:06;;;;;;;34.55;4.20;;;;;;;;;;5042528;28;20049;-71
2021/06/21 07:22:32;;;;;;;12.48;2.92;;;;;;;;;;5033994;28;20048;-69
2021/06/21 07:24:58;;;;;;;7.97;2.67;;;;;;;;;;5051633;28;20108;-67
2021/06/21 07:27:26;;;;;;;8.80;2.85;;;;;;;;;;5052358;28;20444;-68
2021/06/21 07:29:53;;;;;;;20.60;3.40;;;;;;;;;;5051691;28;20021;-71
2021/06/21 07:32:18;;;;;;;8.30;2.60;;;;;;;;;;5029878;28;20021;-69
2021/06/21 07:34:44;;;;;;;15.23;2.72;;;;;;;;;;5048879;28;20043;-69
2021/06/21 07:37:10;;;;;;;13.60;3.33;;;;;;;;;;5051647;28;20067;-69
2021/06/21 07:39:37;;;;;;;10.77;2.80;;;;;;;;;;5034004;28;20059;-71
2021/06/21 07:42:02;;;;;;;5.40;2.83;;;;;;;;;;5050573;28;20021;-72
2021/06/21 07:44:29;;;;;;;11.52;2.90;;;;;;;;;;5051945;28;20013;-77
2021/06/21 07:46:54;;;;;;;3.55;2.60;;;;;;;;;;5051672;28;20043;-78
2021/06/21 07:49:21;;;;;;;10.38;2.45;;;;;;;;;;5051577;28;20474;-68
2021/06/21 07:51:46;;;;;;;7.20;3.25;;;;;;;;;;5054287;28;20389;-68
2021/06/21 07:54:12;;;;;;;11.05;3.00;;;;;;;;;;5055353;28;20021;-70
2021/06/21 07:56:37;;;;;;;5.47;2.78;;;;;;;;;;5055829;28;20024;-69
2021/06/21 07:59:03;;;;;;;6.65;2.95;;;;;;;;;;5055262;28;20104;-69
2021/06/21 08:01:29;;;;;;;8.82;2.65;;;;;;;;;;5055379;28;20096;-73
2021/06/21 08:03:56;;;;;;;6.50;2.42;;;;;;;;;;5055462;28;20024;-71
2021/06/21 08:06:23;;;;;;;3.72;2.75;;;;;;;;;;5038011;28;20032;-74
2021/06/21 08:08:48;;;;;;;7.88;2.65;;;;;;;;;;5055404;28;20025;-73
2021/06/21 08:11:14;;;;;;;6.57;2.70;;;;;;;;;;5056423;28;20075;-73
2021/06/21 08:13:40;;;;;;;10.38;3.65;;;;;;;;;;5055349;28;20091;-71
2021/06/21 08:16:08;;;;;;;3.17;2.45;;;;;;;;;;5055307;28;20108;-74
2021/06/21 08:18:34;;;;;;;5.13;2.83;;;;;;;;;;5055722;28;20020;-68
2021/06/21 08:21:01;;;;;;;5.65;2.28;;;;;;;;;;5054637;28;20045;-69
2021/06/21 08:23:29;;;;;;;5.15;2.33;;;;;;;;;;5055136;28;20021;-76
2021/06/21 08:25:57;;;;;;;5.00;2.58;;;;;;;;;;5055127;28;20069;-71
2021/06/21 08:28:23;;;;;;;6.80;2.85;;;;;;;;;;5055132;28;20025;-71
2021/06/21 08:30:49;;;;;;;6.03;2.50;;;;;;;;;;5054620;28;20032;-70
2021/06/21 08:33:15;;;;;;;5.38;2.78;;;;;;;;;;5054884;28;20040;-69
2021/06/21 08:35:41;;;;;;;8.60;2.70;;;;;;;;;;5055437;28;20017;-80
2021/06/21 08:38:07;;;;;;;9.43;2.70;;;;;;;;;;5055039;28;20488;-78
2021/06/21 08:40:34;;;;;;;6.82;2.55;;;;;;;;;;5037202;28;20017;-76
2021/06/21 08:43:01;;;;;;;12.98;3.08;;;;;;;;;;5054503;28;20150;-71
2021/06/21 08:45:28;;;;;;;4.07;2.80;;;;;;;;;;5054647;28;20029;-73
2021/06/21 08:47:55;;;;;;;6.15;2.67;;;;;;;;;;5054803;28;20021;-71
2021/06/21 08:50:21;;;;;;;6.03;2.50;;;;;;;;;;5054847;28;20029;-70
2021/06/21 08:52:47;;;;;;;7.15;2.70;;;;;;;;;;5054503;28;20021;-79
2021/06/21 08:55:13;;;;;;;4.80;2.88;;;;;;;;;;5036892;28;20108;-75
2021/06/21 08:57:46;;;;;;;6.60;3.45;;;;;;;;;;5054702;28;20508;-75
2021/06/21 09:00:14;;;;;;;4.97;2.70;;;;;;;;;;5036682;28;20096;-74
2021/06/21 09:02:39;;;;;;;13.60;3.60;;;;;;;;;;5053936;28;20105;-72
2021/06/21 09:05:06;;;;;;;3.55;2.90;;;;;;;;;;5054062;28;20117;-71
2021/06/21 09:07:32;;;;;;;6.82;3.38;;;;;;;;;;5050449;28;20104;-72
2021/06/21 09:09:59;;;;;;;8.40;3.08;;;;;;;;;;5054315;28;20112;-71
2021/06/21 09:12:25;;;;;;;3.05;2.70;;;;;;;;;;5054070;28;20473;-68
2021/06/21 09:14:53;;;;;;;9.07;2.88;;;;;;;;;;5053845;28;20021;-68
2021/06/21 09:17:21;;;;;;;5.65;2.45;;;;;;;;;;5035495;28;20068;-68
2021/06/21 09:19:53;;;;;;;7.55;2.90;;;;;;;;;;5034331;28;20017;-65
2021/06/21 09:22:38;;;;;;;9.85;2.83;;;;;;;;;;5046816;28;20055;-70
2021/06/21 09:25:07;;;;;;;2.95;2.40;;;;;;;;;;5054095;28;20024;-71
2021/06/21 09:27:34;;;;;;;15.50;2.72;;;;;;;;;;5035730;28;20159;-71
2021/06/21 09:30:09;;;;;;;8.88;2.88;;;;;;;;;;5053274;28;20108;-71
2021/06/21 09:32:44;;;;;;;7.32;3.20;;;;;;;;;;5053703;28;20103;-69
2021/06/21 09:35:12;;;;;;;4.13;2.50;;;;;;;;;;5035775;28;20029;-69
2021/06/21 09:37:45;;;;;;;9.77;3.30;;;;;;;;;;5051473;28;20547;-65
2021/06/21 09:40:23;;;;;;;6.93;2.95;;;;;;;;;;5051865;28;20029;-68
2021/06/21 09:42:48;;;;;;;5.07;2.90;;;;;;;;;;5052269;28;20039;-67
2021/06/21 09:45:16;;;;;;;6.00;2.80;;;;;;;;;;5052103;28;20016;-67
2021/06/21 09:47:42;;;;;;;6.70;3.33;;;;;;;;;;5053052;28;20103;-67
2021/06/21 09:50:19;;;;;;;4.60;2.60;;;;;;;;;;5052725;28;20428;-66
2021/06/21 09:52:46;;;;;;;7.50;2.72;;;;;;;;;;5052510;28;20032;-68
2021/06/21 09:55:17;;;;;;;4.93;3.33;;;;;;;;;;5053127;28;20166;-68
2021/06/21 09:57:43;;;;;;;8.15;3.22;;;;;;;;;;5052738;28;20056;-67
2021/06/21 10:00:10;;;;;;;4.70;2.58;;;;;;;;;;5034762;28;20025;-68
2021/06/21 10:02:35;;;;;;;4.82;2.80;;;;;;;;;;5053081;28;20529;-68
2021/06/21 10:05:02;;;;;;;9.57;2.83;;;;;;;;;;5052510;28;20117;-72
2021/06/21 10:07:32;;;;;;;5.05;2.85;;;;;;;;;;5035132;28;20045;-66
2021/06/21 10:10:05;;;;;;;6.00;3.03;;;;;;;;;;5052728;28;20138;-66
2021/06/21 10:12:32;;;;;;;8.93;2.90;;;;;;;;;;5029834;28;20029;-65
2021/06/21 10:14:58;;;;;;;3.42;2.55;;;;;;;;;;5046784;28;20075;-66
2021/06/21 10:17:24;;;;;;;11.55;5.00;;;;;;;;;;5048903;28;20036;-64
2021/06/21 10:19:49;;;;;;;3.33;2.70;;;;;;;;;;5046680;28;20064;-64
2021/06/21 10:22:16;;;;;;;3.53;2.50;;;;;;;;;;5051456;28;20073;-65
2021/06/21 10:24:42;;;;;;;4.38;3.00;;;;;;;;;;5052325;28;20060;-67
2021/06/21 10:27:08;;;;;;;9.05;2.75;;;;;;;;;;5051216;28;20384;-67
2021/06/21 10:29:34;;;;;;;6.43;3.08;;;;;;;;;;5051324;28;20035;-64
2021/06/21 10:32:00;;;;;;;10.98;3.45;;;;;;;;;;5051915;28;20016;-65
2021/06/21 10:34:26;;;;;;;7.55;3.05;;;;;;;;;;5051997;28;20017;-65
2021/06/21 10:36:53;;;;;;;4.88;2.80;;;;;;;;;;5052291;28;20028;-66
2021/06/21 10:39:19;;;;;;;6.30;3.13;;;;;;;;;;5051287;28;20024;-67
2021/06/21 10:42:03;;;;;;;7.13;2.90;;;;;;;;;;5052102;28;20354;-66
2021/06/21 10:44:37;;;;;;;4.95;2.75;;;;;;;;;;5051946;28;20009;-70
2021/06/21 10:47:21;;;;;;;5.75;3.20;;;;;;;;;;5029919;28;20135;-74
2021/06/21 10:50:00;;;;;;;8.38;3.10;;;;;;;;;;5049783;28;20154;-73
2021/06/21 10:52:26;;;;;;;;;;;;;;;;;;5052364;28;20021;-75
2021/06/21 10:54:52;;;;;;;3.47;2.80;;;;;;;;;;5052057;28;20359;-69
2021/06/21 10:57:19;;;;;;;6.35;3.05;;;;;;;;;;5051711;28;20469;-68
2021/06/21 11:00:05;;;;;;;4.95;2.83;;;;;;;;;;5051974;28;20477;-73
2021/06/21 11:02:37;;;;;;;7.22;3.08;;;;;;;;;;5030061;28;20501;-68
2021/06/21 11:05:03;;;;;;;6.55;3.40;;;;;;;;;;5032713;28;20029;-67
2021/06/21 11:07:28;;;;;;;5.20;3.38;;;;;;;;;;5051523;28;20190;-66
2021/06/21 11:09:57;;;;;;;4.88;3.10;;;;;;;;;;5051373;28;20029;-63
2021/06/21 11:12:29;;;;;;;6.47;3.50;;;;;;;;;;5050812;28;20086;-70
2021/06/21 11:15:07;;;;;;;4.57;2.65;;;;;;;;;;5051206;28;20448;-64
2021/06/21 11:17:47;;;;;;;7.05;3.10;;;;;;;;;;5051382;28;20056;-69
2021/06/21 11:20:31;;;;;;;6.85;2.90;;;;;;;;;;5051087;28;20025;-70
2021/06/21 11:23:00;;;;;;;4.22;2.97;;;;;;;;;;5050767;28;20049;-69
2021/06/21 11:25:27;;;;;;;3.30;2.60;;;;;;;;;;5055371;28;20021;-74
2021/06/21 11:27:53;;;;;;;6.07;3.47;;;;;;;;;;5057610;28;20496;-71
2021/06/21 11:30:32;;;;;;;10.60;3.60;;;;;;;;;;5057797;28;20029;-67
2021/06/21 11:32:57;;;;;;;;;;;;;;;;;;5036284;28;20017;-69
2021/06/21 11:35:30;;;;;;;6.53;3.07;;;;;;;;;;5053873;28;19905;-69
2021/06/21 11:37:55;;;;;;;4.15;3.20;;;;;;;;;;5057557;28;20066;-70
2021/06/21 11:40:22;;;;;;;3.97;3.22;;;;;;;;;;5057675;28;20104;-71
2021/06/21 11:43:06;;;;;;;11.43;3.00;;;;;;;;;;5056682;28;20051;-70
2021/06/21 11:45:50;;;;;;;8.88;2.80;;;;;;;;;;5057884;28;20051;-71
2021/06/21 11:48:20;;;;;;;4.93;2.70;;;;;;;;;;5064901;28;20418;-72
2021/06/21 11:50:45;;;;;;;5.55;3.10;;;;;;;;;;5057189;28;20016;-67
2021/06/21 11:53:11;;;;;;;9.43;2.75;;;;;;;;;;5057808;28;20028;-68
2021/06/21 11:55:36;;;;;;;10.40;3.22;;;;;;;;;;5056416;28;20504;-69
2021/06/21 11:58:03;;;;;;;5.32;3.00;;;;;;;;;;5055380;28;20465;-68
2021/06/21 12:00:33;;;;;;;3.40;2.90;;;;;;;;;;5057669;28;20044;-68
2021/06/21 12:03:07;;;;;;;4.88;3.25;;;;;;;;;;5056617;28;20048;-66
2021/06/21 12:05:32;;;;;;;4.38;2.47;;;;;;;;;;5053603;28;20029;-66
2021/06/21 12:07:58;;;;;;;7.40;3.00;;;;;;;;;;5056360;28;20280;-66
2021/06/21 12:10:23;;;;;;;5.45;3.78;;;;;;;;;;5056370;28;20099;-65
2021/06/21 12:12:52;;;;;;;6.10;3.20;;;;;;;;;;5056865;28;20024;-65
2021/06/21 12:15:17;;;;;;;;;;;;;;;;;;5057496;28;20049;-65
2021/06/21 12:17:43;;;;;;;3.70;2.75;;;;;;;;;;5056677;28;19947;-65
2021/06/21 12:20:14;;;;;;;8.85;2.85;;;;;;;;;;5057571;28;20346;-65
2021/06/21 12:22:40;;;;;;;8.13;3.97;;;;;;;;;;5057014;28;20148;-65
2021/06/21 12:25:06;;;;;;;7.65;3.58;;;;;;;;;;5046131;28;20151;-65
2021/06/21 12:27:33;;;;;;;20.67;3.97;;;;;;;;;;5037999;28;20557;-65
2021/06/21 12:29:59;;;;;;;11.68;3.50;;;;;;;;;;5056314;28;20032;-66
2021/06/21 12:32:29;;;;;;;9.07;3.03;;;;;;;;;;5057099;28;20028;-65
2021/06/21 12:34:57;;;;;;;6.63;3.17;;;;;;;;;;5057226;28;20020;-65
2021/06/21 12:37:27;;;;;;;6.25;3.78;;;;;;;;;;5054318;28;20059;-66
2021/06/21 12:40:11;;;;;;;3.75;3.05;;;;;;;;;;5054389;28;20028;-65
2021/06/21 12:42:37;;;;;;;12.30;2.95;;;;;;;;;;5038089;28;20021;-65
2021/06/21 12:45:09;;;;;;;4.75;3.78;;;;;;;;;;5063565;28;20017;-65
2021/06/21 12:47:35;;;;;;;8.15;3.15;;;;;;;;;;5062026;28;20048;-65
2021/06/21 12:50:06;;;;;;;7.30;3.33;;;;;;;;;;5054028;28;20493;-66
2021/06/21 12:52:32;;;;;;;6.97;3.45;;;;;;;;;;5037136;28;20016;-65
2021/06/21 12:55:07;;;;;;;8.00;3.03;;;;;;;;;;5054601;28;20032;-66
2021/06/21 12:57:54;;;;;;;4.88;3.03;;;;;;;;;;5037471;28;20028;-65
2021/06/21 13:00:26;;;;;;;7.32;3.20;;;;;;;;;;5060147;28;20047;-66
2021/06/21 13:03:05;;;;;;;5.35;3.63;;;;;;;;;;5053723;28;20017;-66
2021/06/21 13:05:42;;;;;;;8.60;3.47;;;;;;;;;;5053370;28;20108;-65
2021/06/21 13:08:08;;;;;;;14.63;3.47;;;;;;;;;;5053811;28;20063;-66
2021/06/21 13:10:34;;;;;;;12.07;4.03;;;;;;;;;;5052641;28;20477;-66
2021/06/21 13:13:03;;;;;;;11.38;3.92;;;;;;;;;;5053316;28;20021;-67
2021/06/21 13:15:36;;;;;;;8.25;3.10;;;;;;;;;;5053696;28;20021;-66
2021/06/21 13:18:02;;;;;;;8.63;3.20;;;;;;;;;;5053338;28;20017;-65
2021/06/21 13:20:27;;;;;;;9.82;3.00;;;;;;;;;;5053066;28;20013;-66
2021/06/21 13:22:54;;;;;;;21.27;4.40;;;;;;;;;;5052892;28;20543;-66
2021/06/21 13:25:25;;;;;;;7.22;2.95;;;;;;;;;;5053137;28;20067;-66
2021/06/21 13:28:04;;;;;;;12.10;3.92;;;;;;;;;;5052574;28;20044;-65
2021/06/21 13:30:32;;;;;;;7.70;3.58;;;;;;;;;;5053232;28;20013;-66
2021/06/21 13:33:01;;;;;;;7.73;3.93;;;;;;;;;;5052914;28;20059;-65
2021/06/21 13:35:27;;;;;;;7.97;3.88;;;;;;;;;;5035429;28;20633;-66
2021/06/21 13:37:53;;;;;;;10.90;3.83;;;;;;;;;;5053234;28;20028;-66
2021/06/21 13:40:21;;;;;;;4.28;3.58;;;;;;;;;;5052889;28;20029;-65
2021/06/21 13:42:48;;;;;;;;;;;;;;;;;;5053605;28;20021;-65
2021/06/21 13:45:21;;;;;;;9.10;4.15;;;;;;;;;;5053039;28;19908;-66
2021/06/21 13:47:47;;;;;;;8.95;3.30;;;;;;;;;;5052144;28;20074;-65
2021/06/21 13:50:15;;;;;;;7.35;3.53;;;;;;;;;;5055796;28;20025;-68
2021/06/21 13:52:45;;;;;;;9.93;4.00;;;;;;;;;;5059606;28;20040;-66
2021/06/21 13:55:13;;;;;;;7.70;4.13;;;;;;;;;;5055989;28;20027;-68
2021/06/21 13:57:40;;;;;;;6.60;3.37;;;;;;;;;;5058142;28;20380;-68
2021/06/21 14:00:10;;;;;;;6.95;3.47;;;;;;;;;;5057268;28;20498;-68
2021/06/21 14:02:38;;;;;;;15.70;4.03;;;;;;;;;;5052670;28;20071;-68
2021/06/21 14:05:04;;;;;;;9.67;4.03;;;;;;;;;;5052038;28;20060;-68
2021/06/21 14:07:30;;;;;;;9.98;4.28;;;;;;;;;;5052492;28;20159;-70
2021/06/21 14:09:56;;;;;;;9.90;3.80;;;;;;;;;;5052155;28;20100;-69
2021/06/21 14:12:22;;;;;;;12.68;4.10;;;;;;;;;;5052487;28;20037;-69
2021/06/21 14:14:48;;;;;;;17.60;4.22;;;;;;;;;;5050594;28;20020;-68
2021/06/21 14:17:13;;;;;;;10.82;4.00;;;;;;;;;;5049767;28;20020;-68
2021/06/21 14:19:39;;;;;;;11.45;3.80;;;;;;;;;;5048380;28;20016;-69
2021/06/21 14:22:04;;;;;;;10.48;3.47;;;;;;;;;;5040898;28;20053;-68
2021/06/21 14:24:30;;;;;;;9.73;3.80;;;;;;;;;;5049047;28;20087;-69
2021/06/21 14:26:55;;;;;;;11.95;4.05;;;;;;;;;;5047748;28;20017;-67
2021/06/21 14:29:21;;;;;;;21.73;5.38;;;;;;;;;;5476073;23;20064;-72
2021/06/21 14:31:46;;;;;;;11.80;3.90;;;;;;;;;;5017152;28;20048;-69
2021/06/21 14:34:12;;;;;;;16.60;4.18;;;;;;;;;;5032502;28;20456;-69
2021/06/21 14:36:40;;;;;;;19.00;4.60;;;;;;;;;;5032786;28;20091;-69
2021/06/21 14:39:06;;;;;;;11.52;3.63;;;;;;;;;;5033375;28;20025;-68
2021/06/21 14:41:33;;;;;;;7.88;4.05;;;;;;;;;;5033254;28;20037;-70
2021/06/21 14:44:01;;;;;;;15.60;4.13;;;;;;;;;;5033076;28;20477;-69